sensor_id;sensor_type;location;lat;lon;timestamp;P1;durP1;ratioP1;P2;durP2;ratioP2
51298;SDS011;37382;45.192;9.790;2023-03-01T05:08:07;16.70;;;13.55;;
51298;SDS011;37382;45.192;9.790;2023-03-01T05:10:35;19.88;;;15.20;;
51298;SDS011;37382;45.192;9.790;2023-03-01T05:13:03;17.35;;;13.48;;
51298;SDS011;37382;45.192;9.790;2023-03-01T05:15:31;16.33;;;13.38;;
51298;SDS011;37382;45.192;9.790;2023-03-01T05:17:59;16.25;;;13.93;;
51298;SDS011;37382;45.192;9.790;2023-03-01T05:20:28;18.85;;;14.40;;
51298;SDS011;37382;45.192;9.790;2023-03-01T05:22:58;25.15;;;14.85;;
51298;SDS011;37382;45.192;9.790;2023-03-01T05:25:27;20.13;;;15.95;;
51298;SDS011;37382;45.192;9.790;2023-03-01T05:28:00;27.67;;;17.35;;
51298;SDS011;37382;45.192;9.790;2023-03-01T05:30:32;20.45;;;15.95;;
51298;SDS011;37382;45.192;9.790;2023-03-01T05:33:00;20.60;;;16.10;;
51298;SDS011;37382;45.192;9.790;2023-03-01T05:35:28;24.05;;;17.80;;
51298;SDS011;37382;45.192;9.790;2023-03-01T05:37:56;30.35;;;19.83;;
51298;SDS011;37382;45.192;9.790;2023-03-01T05:40:23;31.02;;;20.45;;
51298;SDS011;37382;45.192;9.790;2023-03-01T05:42:53;22.98;;;16.92;;
51298;SDS011;37382;45.192;9.790;2023-03-01T05:45:23;32.95;;;21.80;;
51298;SDS011;37382;45.192;9.790;2023-03-01T05:47:52;47.40;;;24.52;;
51298;SDS011;37382;45.192;9.790;2023-03-01T05:50:32;41.40;;;23.67;;
51298;SDS011;37382;45.192;9.790;2023-03-01T05:53:03;43.80;;;25.95;;
51298;SDS011;37382;45.192;9.790;2023-03-01T05:55:36;48.58;;;25.42;;
51298;SDS011;37382;45.192;9.790;2023-03-01T05:58:06;54.10;;;30.20;;
51298;SDS011;37382;45.192;9.790;2023-03-01T06:00:36;45.15;;;27.15;;
51298;SDS011;37382;45.192;9.790;2023-03-01T06:03:04;45.20;;;26.63;;
51298;SDS011;37382;45.192;9.790;2023-03-01T06:05:31;51.83;;;28.45;;
51298;SDS011;37382;45.192;9.790;2023-03-01T06:07:59;42.78;;;27.38;;
51298;SDS011;37382;45.192;9.790;2023-03-01T06:10:28;58.13;;;28.98;;
51298;SDS011;37382;45.192;9.790;2023-03-01T06:12:56;52.03;;;26.73;;
51298;SDS011;37382;45.192;9.790;2023-03-01T06:15:24;44.75;;;27.33;;
51298;SDS011;37382;45.192;9.790;2023-03-01T06:17:53;50.20;;;27.50;;
51298;SDS011;37382;45.192;9.790;2023-03-01T06:20:26;59.90;;;26.05;;
51298;SDS011;37382;45.192;9.790;2023-03-01T06:22:55;49.80;;;27.95;;
51298;SDS011;37382;45.192;9.790;2023-03-01T06:25:24;46.15;;;27.85;;
51298;SDS011;37382;45.192;9.790;2023-03-01T06:27:53;47.17;;;28.67;;
51298;SDS011;37382;45.192;9.790;2023-03-01T06:30:21;44.70;;;26.77;;
51298;SDS011;37382;45.192;9.790;2023-03-01T06:32:50;50.03;;;28.33;;
51298;SDS011;37382;45.192;9.790;2023-03-01T06:35:18;54.25;;;28.75;;
51298;SDS011;37382;45.192;9.790;2023-03-01T06:37:47;53.33;;;30.27;;
51298;SDS011;37382;45.192;9.790;2023-03-01T06:40:15;55.00;;;31.30;;
51298;SDS011;37382;45.192;9.790;2023-03-01T06:42:47;67.07;;;31.80;;
51298;SDS011;37382;45.192;9.790;2023-03-01T06:45:16;66.43;;;32.45;;
51298;SDS011;37382;45.192;9.790;2023-03-01T06:47:47;56.15;;;33.30;;
51298;SDS011;37382;45.192;9.790;2023-03-01T06:50:16;60.30;;;31.38;;
51298;SDS011;37382;45.192;9.790;2023-03-01T06:52:45;48.33;;;28.05;;
51298;SDS011;37382;45.192;9.790;2023-03-01T06:55:12;43.72;;;26.83;;
51298;SDS011;37382;45.192;9.790;2023-03-01T06:57:40;47.65;;;28.90;;
51298;SDS011;37382;45.192;9.790;2023-03-01T07:00:08;49.13;;;27.92;;
51298;SDS011;37382;45.192;9.790;2023-03-01T07:02:35;49.63;;;30.50;;
51298;SDS011;37382;45.192;9.790;2023-03-01T07:05:03;42.10;;;26.80;;
51298;SDS011;37382;45.192;9.790;2023-03-01T07:07:31;43.10;;;26.85;;
51298;SDS011;37382;45.192;9.790;2023-03-01T07:09:59;39.40;;;26.58;;
51298;SDS011;37382;45.192;9.790;2023-03-01T07:12:27;42.25;;;27.23;;
51298;SDS011;37382;45.192;9.790;2023-03-01T07:14:54;46.42;;;27.15;;
51298;SDS011;37382;45.192;9.790;2023-03-01T07:17:22;49.17;;;27.17;;
51298;SDS011;37382;45.192;9.790;2023-03-01T07:19:49;48.20;;;30.75;;
51298;SDS011;37382;45.192;9.790;2023-03-01T07:22:17;54.83;;;28.15;;
51298;SDS011;37382;45.192;9.790;2023-03-01T07:24:45;48.25;;;29.55;;
51298;SDS011;37382;45.192;9.790;2023-03-01T07:27:13;46.90;;;29.05;;
51298;SDS011;37382;45.192;9.790;2023-03-01T07:29:40;52.42;;;28.23;;
51298;SDS011;37382;45.192;9.790;2023-03-01T07:32:07;43.53;;;28.58;;
51298;SDS011;37382;45.192;9.790;2023-03-01T07:34:36;50.50;;;30.00;;
51298;SDS011;37382;45.192;9.790;2023-03-01T07:37:03;44.53;;;26.80;;
51298;SDS011;37382;45.192;9.790;2023-03-01T07:39:31;40.25;;;26.05;;
51298;SDS011;37382;45.192;9.790;2023-03-01T07:41:58;41.65;;;27.23;;
51298;SDS011;37382;45.192;9.790;2023-03-01T07:44:26;42.22;;;27.08;;
51298;SDS011;37382;45.192;9.790;2023-03-01T07:46:55;45.45;;;27.75;;
51298;SDS011;37382;45.192;9.790;2023-03-01T07:49:23;51.80;;;28.85;;
51298;SDS011;37382;45.192;9.790;2023-03-01T07:51:50;45.03;;;28.83;;
51298;SDS011;37382;45.192;9.790;2023-03-01T07:54:18;46.58;;;28.65;;
51298;SDS011;37382;45.192;9.790;2023-03-01T07:56:45;48.33;;;28.40;;
51298;SDS011;37382;45.192;9.790;2023-03-01T07:59:13;56.80;;;29.38;;
51298;SDS011;37382;45.192;9.790;2023-03-01T08:01:41;48.67;;;30.80;;
51298;SDS011;37382;45.192;9.790;2023-03-01T08:04:08;43.40;;;28.23;;
51298;SDS011;37382;45.192;9.790;2023-03-01T08:06:36;51.92;;;29.88;;
51298;SDS011;37382;45.192;9.790;2023-03-01T08:09:04;49.70;;;29.45;;
51298;SDS011;37382;45.192;9.790;2023-03-01T08:11:32;51.13;;;29.20;;
51298;SDS011;37382;45.192;9.790;2023-03-01T08:13:59;54.05;;;29.27;;
51298;SDS011;37382;45.192;9.790;2023-03-01T08:16:27;44.90;;;29.02;;
51298;SDS011;37382;45.192;9.790;2023-03-01T08:18:55;56.70;;;29.15;;
51298;SDS011;37382;45.192;9.790;2023-03-01T08:21:26;48.67;;;29.27;;
51298;SDS011;37382;45.192;9.790;2023-03-01T08:23:54;45.33;;;26.60;;
51298;SDS011;37382;45.192;9.790;2023-03-01T08:26:21;49.75;;;26.27;;
51298;SDS011;37382;45.192;9.790;2023-03-01T08:28:49;47.70;;;27.42;;
51298;SDS011;37382;45.192;9.790;2023-03-01T08:31:24;47.45;;;26.50;;
51298;SDS011;37382;45.192;9.790;2023-03-01T08:33:55;49.95;;;25.60;;
51298;SDS011;37382;45.192;9.790;2023-03-01T08:36:25;50.25;;;26.08;;
51298;SDS011;37382;45.192;9.790;2023-03-01T08:38:55;48.65;;;24.67;;
51298;SDS011;37382;45.192;9.790;2023-03-01T08:41:22;44.53;;;25.48;;
51298;SDS011;37382;45.192;9.790;2023-03-01T08:43:50;41.15;;;23.92;;
51298;SDS011;37382;45.192;9.790;2023-03-01T08:46:18;44.40;;;24.50;;
51298;SDS011;37382;45.192;9.790;2023-03-01T08:48:46;37.97;;;24.30;;
51298;SDS011;37382;45.192;9.790;2023-03-01T08:51:15;39.22;;;21.95;;
51298;SDS011;37382;45.192;9.790;2023-03-01T08:56:13;36.58;;;21.35;;
51298;SDS011;37382;45.192;9.790;2023-03-01T08:58:45;44.35;;;22.77;;
51298;SDS011;37382;45.192;9.790;2023-03-01T09:01:15;49.90;;;25.52;;
51298;SDS011;37382;45.192;9.790;2023-03-01T09:03:45;36.42;;;21.38;;
51298;SDS011;37382;45.192;9.790;2023-03-01T09:06:12;43.95;;;24.75;;
51298;SDS011;37382;45.192;9.790;2023-03-01T09:08:42;35.50;;;22.60;;
51298;SDS011;37382;45.192;9.790;2023-03-01T09:11:12;47.92;;;31.08;;
51298;SDS011;37382;45.192;9.790;2023-03-01T09:13:45;35.97;;;20.20;;
51298;SDS011;37382;45.192;9.790;2023-03-01T09:16:14;32.38;;;19.77;;
51298;SDS011;37382;45.192;9.790;2023-03-01T09:18:45;40.67;;;19.80;;
51298;SDS011;37382;45.192;9.790;2023-03-01T09:21:16;37.28;;;20.42;;
51298;SDS011;37382;45.192;9.790;2023-03-01T09:23:50;29.10;;;19.33;;
51298;SDS011;37382;45.192;9.790;2023-03-01T09:26:19;33.42;;;21.27;;
51298;SDS011;37382;45.192;9.790;2023-03-01T09:28:50;32.20;;;18.52;;
51298;SDS011;37382;45.192;9.790;2023-03-01T09:31:20;29.17;;;19.30;;
51298;SDS011;37382;45.192;9.790;2023-03-01T09:33:51;31.88;;;18.75;;
51298;SDS011;37382;45.192;9.790;2023-03-01T09:36:21;29.20;;;18.05;;
51298;SDS011;37382;45.192;9.790;2023-03-01T09:38:51;32.45;;;18.98;;
51298;SDS011;37382;45.192;9.790;2023-03-01T09:47:01;30.13;;;18.77;;
51298;SDS011;37382;45.192;9.790;2023-03-01T09:49:33;35.78;;;19.10;;
51298;SDS011;37382;45.192;9.790;2023-03-01T09:52:12;34.25;;;20.75;;
51298;SDS011;37382;45.192;9.790;2023-03-01T09:54:41;32.03;;;19.90;;
51298;SDS011;37382;45.192;9.790;2023-03-01T10:05:15;24.10;;;16.98;;
51298;SDS011;37382;45.192;9.790;2023-03-01T10:07:50;31.42;;;18.52;;
51298;SDS011;37382;45.192;9.790;2023-03-01T10:10:43;27.10;;;16.75;;
51298;SDS011;37382;45.192;9.790;2023-03-01T10:13:16;24.48;;;15.90;;
51298;SDS011;37382;45.192;9.790;2023-03-01T10:15:47;26.13;;;16.40;;
51298;SDS011;37382;45.192;9.790;2023-03-01T10:18:23;26.38;;;16.83;;
51298;SDS011;37382;45.192;9.790;2023-03-01T10:29:09;25.20;;;15.68;;
51298;SDS011;37382;45.192;9.790;2023-03-01T10:31:46;29.45;;;15.38;;
51298;SDS011;37382;45.192;9.790;2023-03-01T10:34:26;26.10;;;15.85;;
51298;SDS011;37382;45.192;9.790;2023-03-01T10:36:57;23.92;;;15.10;;
51298;SDS011;37382;45.192;9.790;2023-03-01T10:39:36;36.45;;;16.70;;
51298;SDS011;37382;45.192;9.790;2023-03-01T10:42:05;26.70;;;15.32;;
51298;SDS011;37382;45.192;9.790;2023-03-01T10:44:47;27.27;;;15.63;;
51298;SDS011;37382;45.192;9.790;2023-03-01T10:47:25;33.65;;;19.17;;
51298;SDS011;37382;45.192;9.790;2023-03-01T10:49:56;33.15;;;20.13;;
51298;SDS011;37382;45.192;9.790;2023-03-01T10:52:32;31.02;;;15.90;;
51298;SDS011;37382;45.192;9.790;2023-03-01T10:55:04;26.55;;;15.32;;
51298;SDS011;37382;45.192;9.790;2023-03-01T10:58:05;35.28;;;17.02;;
51298;SDS011;37382;45.192;9.790;2023-03-01T11:00:45;29.73;;;17.20;;
51298;SDS011;37382;45.192;9.790;2023-03-01T11:03:16;31.73;;;20.05;;
51298;SDS011;37382;45.192;9.790;2023-03-01T11:05:56;28.10;;;16.90;;
51298;SDS011;37382;45.192;9.790;2023-03-01T11:08:39;27.48;;;16.20;;
51298;SDS011;37382;45.192;9.790;2023-03-01T11:11:30;26.83;;;15.80;;
51298;SDS011;37382;45.192;9.790;2023-03-01T11:14:01;30.88;;;17.58;;
51298;SDS011;37382;45.192;9.790;2023-03-01T11:16:58;26.27;;;16.83;;
51298;SDS011;37382;45.192;9.790;2023-03-01T11:19:30;25.90;;;16.27;;
51298;SDS011;37382;45.192;9.790;2023-03-01T11:22:02;26.23;;;17.60;;
51298;SDS011;37382;45.192;9.790;2023-03-01T11:24:51;33.38;;;18.77;;
51298;SDS011;37382;45.192;9.790;2023-03-01T11:27:36;29.10;;;18.55;;
51298;SDS011;37382;45.192;9.790;2023-03-01T11:35:36;29.98;;;17.25;;
51298;SDS011;37382;45.192;9.790;2023-03-01T11:38:15;24.88;;;17.00;;
51298;SDS011;37382;45.192;9.790;2023-03-01T11:40:48;29.95;;;18.40;;
51298;SDS011;37382;45.192;9.790;2023-03-01T11:43:29;25.98;;;16.42;;
51298;SDS011;37382;45.192;9.790;2023-03-01T11:48:49;29.88;;;18.05;;
51298;SDS011;37382;45.192;9.790;2023-03-01T11:54:18;30.15;;;17.35;;
51298;SDS011;37382;45.192;9.790;2023-03-01T11:57:08;30.48;;;17.55;;
51298;SDS011;37382;45.192;9.790;2023-03-01T11:59:45;31.75;;;18.73;;
51298;SDS011;37382;45.192;9.790;2023-03-01T12:08:41;30.85;;;18.95;;
51298;SDS011;37382;45.192;9.790;2023-03-01T12:25:12;32.13;;;19.40;;
51298;SDS011;37382;45.192;9.790;2023-03-01T12:28:19;43.55;;;22.42;;
51298;SDS011;37382;45.192;9.790;2023-03-01T12:31:30;43.53;;;21.65;;
51298;SDS011;37382;45.192;9.790;2023-03-01T12:50:31;43.03;;;20.50;;
51298;SDS011;37382;45.192;9.790;2023-03-01T12:53:51;38.58;;;19.77;;
51298;SDS011;37382;45.192;9.790;2023-03-01T12:56:06;33.58;;;20.85;;
51298;SDS011;37382;45.192;9.790;2023-03-01T13:18:01;31.60;;;19.40;;
51298;SDS011;37382;45.192;9.790;2023-03-01T13:33:47;31.67;;;19.92;;
51298;SDS011;37382;45.192;9.790;2023-03-01T13:38:59;32.58;;;19.95;;
51298;SDS011;37382;45.192;9.790;2023-03-01T13:47:14;29.30;;;19.38;;
51298;SDS011;37382;45.192;9.790;2023-03-01T13:49:43;38.67;;;21.75;;
51298;SDS011;37382;45.192;9.790;2023-03-01T13:52:30;31.85;;;21.27;;
51298;SDS011;37382;45.192;9.790;2023-03-01T13:55:14;44.80;;;26.15;;
51298;SDS011;37382;45.192;9.790;2023-03-01T13:57:46;53.50;;;33.35;;
51298;SDS011;37382;45.192;9.790;2023-03-01T14:00:55;34.60;;;19.80;;
51298;SDS011;37382;45.192;9.790;2023-03-01T14:03:16;29.05;;;19.25;;
51298;SDS011;37382;45.192;9.790;2023-03-01T14:06:05;29.63;;;19.42;;
51298;SDS011;37382;45.192;9.790;2023-03-01T14:08:43;32.45;;;19.65;;
51298;SDS011;37382;45.192;9.790;2023-03-01T14:14:30;34.35;;;19.95;;
51298;SDS011;37382;45.192;9.790;2023-03-01T14:19:58;30.33;;;20.30;;
51298;SDS011;37382;45.192;9.790;2023-03-01T14:22:29;36.67;;;21.33;;
51298;SDS011;37382;45.192;9.790;2023-03-01T14:25:02;37.50;;;22.45;;
51298;SDS011;37382;45.192;9.790;2023-03-01T14:27:43;30.52;;;18.73;;
51298;SDS011;37382;45.192;9.790;2023-03-01T14:30:15;34.85;;;19.02;;
51298;SDS011;37382;45.192;9.790;2023-03-01T14:32:52;27.35;;;18.27;;
51298;SDS011;37382;45.192;9.790;2023-03-01T14:35:25;31.95;;;18.23;;
51298;SDS011;37382;45.192;9.790;2023-03-01T14:37:58;31.40;;;19.15;;
51298;SDS011;37382;45.192;9.790;2023-03-01T14:40:28;31.95;;;19.33;;
51298;SDS011;37382;45.192;9.790;2023-03-01T14:42:58;29.90;;;18.67;;
51298;SDS011;37382;45.192;9.790;2023-03-01T14:45:29;28.15;;;17.77;;
51298;SDS011;37382;45.192;9.790;2023-03-01T14:47:59;33.50;;;19.27;;
51298;SDS011;37382;45.192;9.790;2023-03-01T14:50:32;35.97;;;19.98;;
51298;SDS011;37382;45.192;9.790;2023-03-01T14:53:03;32.72;;;18.60;;
51298;SDS011;37382;45.192;9.790;2023-03-01T14:55:37;31.17;;;17.90;;
51298;SDS011;37382;45.192;9.790;2023-03-01T14:58:12;83.63;;;45.30;;
51298;SDS011;37382;45.192;9.790;2023-03-01T15:03:34;71.15;;;47.40;;
51298;SDS011;37382;45.192;9.790;2023-03-01T15:06:04;35.97;;;21.23;;
51298;SDS011;37382;45.192;9.790;2023-03-01T15:08:33;31.70;;;18.45;;
51298;SDS011;37382;45.192;9.790;2023-03-01T15:13:40;32.50;;;18.98;;
51298;SDS011;37382;45.192;9.790;2023-03-01T15:16:09;38.67;;;18.77;;
51298;SDS011;37382;45.192;9.790;2023-03-01T15:18:47;50.53;;;29.35;;
51298;SDS011;37382;45.192;9.790;2023-03-01T15:21:18;30.33;;;17.10;;
51298;SDS011;37382;45.192;9.790;2023-03-01T15:23:49;35.72;;;20.08;;
51298;SDS011;37382;45.192;9.790;2023-03-01T15:26:33;55.15;;;31.35;;
51298;SDS011;37382;45.192;9.790;2023-03-01T15:29:10;47.63;;;27.70;;
51298;SDS011;37382;45.192;9.790;2023-03-01T15:31:53;36.83;;;21.98;;
51298;SDS011;37382;45.192;9.790;2023-03-01T15:34:31;44.45;;;25.02;;
51298;SDS011;37382;45.192;9.790;2023-03-01T15:37:01;31.50;;;20.73;;
51298;SDS011;37382;45.192;9.790;2023-03-01T15:39:39;33.35;;;20.38;;
51298;SDS011;37382;45.192;9.790;2023-03-01T15:45:09;46.20;;;25.00;;
51298;SDS011;37382;45.192;9.790;2023-03-01T15:47:39;36.45;;;22.02;;
51298;SDS011;37382;45.192;9.790;2023-03-01T15:50:15;41.65;;;24.15;;
51298;SDS011;37382;45.192;9.790;2023-03-01T15:52:46;47.53;;;25.25;;
51298;SDS011;37382;45.192;9.790;2023-03-01T15:55:15;41.33;;;24.65;;
51298;SDS011;37382;45.192;9.790;2023-03-01T15:57:57;38.95;;;22.55;;
51298;SDS011;37382;45.192;9.790;2023-03-01T16:00:27;32.40;;;19.50;;
51298;SDS011;37382;45.192;9.790;2023-03-01T16:02:56;38.38;;;22.20;;
51298;SDS011;37382;45.192;9.790;2023-03-01T16:05:26;37.20;;;21.73;;
51298;SDS011;37382;45.192;9.790;2023-03-01T16:07:58;42.83;;;25.23;;
51298;SDS011;37382;45.192;9.790;2023-03-01T16:10:25;40.55;;;22.50;;
51298;SDS011;37382;45.192;9.790;2023-03-01T16:12:53;49.05;;;24.92;;
51298;SDS011;37382;45.192;9.790;2023-03-01T16:15:26;43.33;;;24.80;;
51298;SDS011;37382;45.192;9.790;2023-03-01T16:17:59;52.53;;;27.13;;
51298;SDS011;37382;45.192;9.790;2023-03-01T16:20:28;46.95;;;25.17;;
51298;SDS011;37382;45.192;9.790;2023-03-01T16:23:00;38.67;;;21.92;;
51298;SDS011;37382;45.192;9.790;2023-03-01T16:25:29;37.33;;;21.73;;
51298;SDS011;37382;45.192;9.790;2023-03-01T16:27:58;37.75;;;23.15;;
51298;SDS011;37382;45.192;9.790;2023-03-01T16:30:31;43.45;;;24.60;;
51298;SDS011;37382;45.192;9.790;2023-03-01T16:33:03;35.75;;;20.70;;
51298;SDS011;37382;45.192;9.790;2023-03-01T16:35:53;38.67;;;22.10;;
51298;SDS011;37382;45.192;9.790;2023-03-01T16:38:20;67.15;;;40.65;;
51298;SDS011;37382;45.192;9.790;2023-03-01T16:40:48;46.25;;;28.08;;
51298;SDS011;37382;45.192;9.790;2023-03-01T16:43:17;45.55;;;22.38;;
51298;SDS011;37382;45.192;9.790;2023-03-01T16:45:45;36.50;;;20.58;;
51298;SDS011;37382;45.192;9.790;2023-03-01T16:48:13;39.85;;;21.98;;
51298;SDS011;37382;45.192;9.790;2023-03-01T16:50:41;36.33;;;20.50;;
51298;SDS011;37382;45.192;9.790;2023-03-01T16:53:08;33.35;;;19.55;;
51298;SDS011;37382;45.192;9.790;2023-03-01T16:55:36;36.95;;;22.05;;
51298;SDS011;37382;45.192;9.790;2023-03-01T16:58:04;38.47;;;21.27;;
51298;SDS011;37382;45.192;9.790;2023-03-01T17:00:32;33.45;;;20.08;;
51298;SDS011;37382;45.192;9.790;2023-03-01T17:03:00;42.75;;;23.52;;
51298;SDS011;37382;45.192;9.790;2023-03-01T17:05:27;38.15;;;22.52;;
51298;SDS011;37382;45.192;9.790;2023-03-01T17:07:55;38.88;;;23.42;;
51298;SDS011;37382;45.192;9.790;2023-03-01T17:10:24;32.97;;;21.05;;
51298;SDS011;37382;45.192;9.790;2023-03-01T17:12:52;36.92;;;21.15;;
51298;SDS011;37382;45.192;9.790;2023-03-01T17:15:20;38.13;;;20.50;;
51298;SDS011;37382;45.192;9.790;2023-03-01T17:17:48;37.28;;;21.95;;
51298;SDS011;37382;45.192;9.790;2023-03-01T17:20:17;36.90;;;20.58;;
51298;SDS011;37382;45.192;9.790;2023-03-01T17:22:45;54.83;;;28.85;;
51298;SDS011;37382;45.192;9.790;2023-03-01T17:25:13;37.83;;;22.13;;
51298;SDS011;37382;45.192;9.790;2023-03-01T17:27:41;157.63;;;68.22;;
51298;SDS011;37382;45.192;9.790;2023-03-01T17:30:09;105.78;;;48.25;;
51298;SDS011;37382;45.192;9.790;2023-03-01T17:32:39;56.47;;;29.73;;
51298;SDS011;37382;45.192;9.790;2023-03-01T17:35:07;36.65;;;21.67;;
51298;SDS011;37382;45.192;9.790;2023-03-01T17:37:38;38.58;;;23.33;;
51298;SDS011;37382;45.192;9.790;2023-03-01T17:40:06;44.08;;;28.40;;
51298;SDS011;37382;45.192;9.790;2023-03-01T17:42:33;40.92;;;25.35;;
51298;SDS011;37382;45.192;9.790;2023-03-01T17:45:01;43.55;;;23.48;;
51298;SDS011;37382;45.192;9.790;2023-03-01T17:47:28;35.50;;;21.92;;
51298;SDS011;37382;45.192;9.790;2023-03-01T17:49:55;33.95;;;21.55;;
51298;SDS011;37382;45.192;9.790;2023-03-01T17:52:23;32.22;;;20.45;;
51298;SDS011;37382;45.192;9.790;2023-03-01T17:54:51;35.05;;;21.95;;
51298;SDS011;37382;45.192;9.790;2023-03-01T17:57:19;119.47;;;52.65;;
51298;SDS011;37382;45.192;9.790;2023-03-01T17:59:46;90.78;;;42.67;;
51298;SDS011;37382;45.192;9.790;2023-03-01T18:02:13;49.55;;;27.65;;
51298;SDS011;37382;45.192;9.790;2023-03-01T18:04:41;41.65;;;25.88;;
51298;SDS011;37382;45.192;9.790;2023-03-01T18:07:08;28.63;;;20.67;;
51298;SDS011;37382;45.192;9.790;2023-03-01T18:09:37;33.08;;;22.33;;
51298;SDS011;37382;45.192;9.790;2023-03-01T18:12:04;36.10;;;23.48;;
51298;SDS011;37382;45.192;9.790;2023-03-01T18:14:32;38.38;;;26.00;;
51298;SDS011;37382;45.192;9.790;2023-03-01T18:17:01;37.92;;;24.98;;
51298;SDS011;37382;45.192;9.790;2023-03-01T18:19:32;42.97;;;28.40;;
51298;SDS011;37382;45.192;9.790;2023-03-01T18:22:00;41.45;;;25.70;;
51298;SDS011;37382;45.192;9.790;2023-03-01T18:24:27;31.92;;;21.10;;
51298;SDS011;37382;45.192;9.790;2023-03-01T18:26:54;26.75;;;18.58;;
51298;SDS011;37382;45.192;9.790;2023-03-01T18:29:22;32.88;;;21.35;;
51298;SDS011;37382;45.192;9.790;2023-03-01T18:31:50;44.25;;;22.95;;
51298;SDS011;37382;45.192;9.790;2023-03-01T18:34:17;36.95;;;21.75;;
51298;SDS011;37382;45.192;9.790;2023-03-01T18:36:45;45.35;;;28.08;;
51298;SDS011;37382;45.192;9.790;2023-03-01T18:39:33;26.70;;;18.08;;
51298;SDS011;37382;45.192;9.790;2023-03-01T18:42:00;27.67;;;18.58;;
51298;SDS011;37382;45.192;9.790;2023-03-01T18:44:29;33.78;;;24.13;;
51298;SDS011;37382;45.192;9.790;2023-03-01T18:46:57;28.85;;;17.60;;
51298;SDS011;37382;45.192;9.790;2023-03-01T18:49:24;36.42;;;22.25;;
51298;SDS011;37382;45.192;9.790;2023-03-01T18:51:52;35.10;;;21.17;;
51298;SDS011;37382;45.192;9.790;2023-03-01T18:54:19;53.13;;;27.80;;
51298;SDS011;37382;45.192;9.790;2023-03-01T18:56:47;62.53;;;32.00;;
51298;SDS011;37382;45.192;9.790;2023-03-01T18:59:14;42.50;;;24.63;;
51298;SDS011;37382;45.192;9.790;2023-03-01T19:01:42;33.90;;;23.02;;
51298;SDS011;37382;45.192;9.790;2023-03-01T19:04:10;32.22;;;20.52;;
51298;SDS011;37382;45.192;9.790;2023-03-01T19:06:38;29.10;;;20.50;;
51298;SDS011;37382;45.192;9.790;2023-03-01T19:09:06;29.30;;;20.95;;
51298;SDS011;37382;45.192;9.790;2023-03-01T19:11:34;28.70;;;19.20;;
51298;SDS011;37382;45.192;9.790;2023-03-01T19:14:02;32.30;;;20.70;;
51298;SDS011;37382;45.192;9.790;2023-03-01T19:16:32;32.45;;;22.15;;
51298;SDS011;37382;45.192;9.790;2023-03-01T19:19:01;29.80;;;19.63;;
51298;SDS011;37382;45.192;9.790;2023-03-01T19:21:31;36.65;;;24.13;;
51298;SDS011;37382;45.192;9.790;2023-03-01T19:24:00;26.08;;;20.05;;
51298;SDS011;37382;45.192;9.790;2023-03-01T19:26:28;36.58;;;25.35;;
51298;SDS011;37382;45.192;9.790;2023-03-01T19:28:58;47.03;;;30.67;;
51298;SDS011;37382;45.192;9.790;2023-03-01T19:31:27;37.33;;;25.42;;
51298;SDS011;37382;45.192;9.790;2023-03-01T19:33:56;35.67;;;24.65;;
51298;SDS011;37382;45.192;9.790;2023-03-01T19:36:40;30.52;;;21.17;;
51298;SDS011;37382;45.192;9.790;2023-03-01T19:41:39;28.27;;;18.55;;
51298;SDS011;37382;45.192;9.790;2023-03-01T19:44:07;29.65;;;20.25;;
51298;SDS011;37382;45.192;9.790;2023-03-01T19:46:36;25.02;;;19.33;;
51298;SDS011;37382;45.192;9.790;2023-03-01T19:49:04;30.08;;;20.42;;
51298;SDS011;37382;45.192;9.790;2023-03-01T19:51:32;27.73;;;20.67;;
51298;SDS011;37382;45.192;9.790;2023-03-01T19:54:02;31.98;;;21.58;;
51298;SDS011;37382;45.192;9.790;2023-03-01T19:56:31;27.23;;;19.48;;
51298;SDS011;37382;45.192;9.790;2023-03-01T19:59:00;35.38;;;23.33;;
51298;SDS011;37382;45.192;9.790;2023-03-01T20:01:31;33.65;;;23.38;;
51298;SDS011;37382;45.192;9.790;2023-03-01T20:04:01;28.00;;;20.35;;
51298;SDS011;37382;45.192;9.790;2023-03-01T20:06:29;27.48;;;18.52;;
51298;SDS011;37382;45.192;9.790;2023-03-01T20:08:58;26.63;;;17.40;;
51298;SDS011;37382;45.192;9.790;2023-03-01T20:11:41;24.88;;;16.65;;
51298;SDS011;37382;45.192;9.790;2023-03-01T20:14:09;26.88;;;19.52;;
51298;SDS011;37382;45.192;9.790;2023-03-01T20:16:38;19.10;;;14.82;;
51298;SDS011;37382;45.192;9.790;2023-03-01T20:19:06;25.20;;;15.45;;
51298;SDS011;37382;45.192;9.790;2023-03-01T20:21:34;19.23;;;15.68;;
51298;SDS011;37382;45.192;9.790;2023-03-01T20:24:01;28.95;;;17.83;;
51298;SDS011;37382;45.192;9.790;2023-03-01T20:26:29;24.27;;;17.52;;
51298;SDS011;37382;45.192;9.790;2023-03-01T20:28:56;22.83;;;17.50;;
51298;SDS011;37382;45.192;9.790;2023-03-01T20:31:24;25.63;;;18.63;;
51298;SDS011;37382;45.192;9.790;2023-03-01T20:33:57;23.45;;;17.35;;
51298;SDS011;37382;45.192;9.790;2023-03-01T20:36:25;25.75;;;17.70;;
51298;SDS011;37382;45.192;9.790;2023-03-01T20:38:54;24.10;;;17.55;;
51298;SDS011;37382;45.192;9.790;2023-03-01T20:41:22;24.70;;;18.60;;
51298;SDS011;37382;45.192;9.790;2023-03-01T20:43:54;26.73;;;18.83;;
51298;SDS011;37382;45.192;9.790;2023-03-01T20:46:25;28.08;;;20.70;;
51298;SDS011;37382;45.192;9.790;2023-03-01T20:48:53;25.73;;;19.17;;
51298;SDS011;37382;45.192;9.790;2023-03-01T20:51:21;26.92;;;19.13;;
51298;SDS011;37382;45.192;9.790;2023-03-01T20:53:48;26.27;;;17.83;;
51298;SDS011;37382;45.192;9.790;2023-03-01T20:56:16;25.48;;;18.65;;
51298;SDS011;37382;45.192;9.790;2023-03-01T20:59:01;34.60;;;21.35;;
51298;SDS011;37382;45.192;9.790;2023-03-01T21:01:30;27.98;;;18.63;;
51298;SDS011;37382;45.192;9.790;2023-03-01T21:03:58;26.42;;;19.50;;
51298;SDS011;37382;45.192;9.790;2023-03-01T21:06:26;26.98;;;18.25;;
51298;SDS011;37382;45.192;9.790;2023-03-01T21:08:54;24.80;;;18.55;;
51298;SDS011;37382;45.192;9.790;2023-03-01T21:11:22;22.63;;;17.33;;
51298;SDS011;37382;45.192;9.790;2023-03-01T21:13:51;21.95;;;16.38;;
51298;SDS011;37382;45.192;9.790;2023-03-01T21:16:20;25.60;;;16.45;;
51298;SDS011;37382;45.192;9.790;2023-03-01T21:18:48;24.27;;;19.00;;
51298;SDS011;37382;45.192;9.790;2023-03-01T21:21:17;24.90;;;17.83;;
51298;SDS011;37382;45.192;9.790;2023-03-01T21:23:47;24.85;;;18.35;;
51298;SDS011;37382;45.192;9.790;2023-03-01T21:28:49;23.92;;;17.88;;
51298;SDS011;37382;45.192;9.790;2023-03-01T21:33:50;22.20;;;16.60;;
51298;SDS011;37382;45.192;9.790;2023-03-01T21:36:19;22.50;;;18.38;;
51298;SDS011;37382;45.192;9.790;2023-03-01T21:38:49;77.05;;;40.67;;
51298;SDS011;37382;45.192;9.790;2023-03-01T21:41:22;25.73;;;21.27;;
51298;SDS011;37382;45.192;9.790;2023-03-01T21:43:58;28.58;;;23.60;;
51298;SDS011;37382;45.192;9.790;2023-03-01T21:46:29;23.85;;;18.38;;
51298;SDS011;37382;45.192;9.790;2023-03-01T21:48:59;22.83;;;18.33;;
51298;SDS011;37382;45.192;9.790;2023-03-01T21:51:28;24.13;;;17.58;;
51298;SDS011;37382;45.192;9.790;2023-03-01T21:53:58;26.17;;;16.70;;
51298;SDS011;37382;45.192;9.790;2023-03-01T21:56:28;23.38;;;17.75;;
51298;SDS011;37382;45.192;9.790;2023-03-01T21:58:58;25.73;;;18.77;;
51298;SDS011;37382;45.192;9.790;2023-03-01T22:01:27;21.85;;;17.50;;
